createdAt,value
2018-08-14T05:00:22.569Z,99.90
2018-08-14T05:05:20.321Z,99.90
2018-08-14T05:10:18.049Z,99.90
2018-08-14T05:15:15.788Z,99.90
2018-08-14T05:20:13.854Z,99.90
2018-08-14T05:25:11.605Z,99.90
2018-08-14T05:30:11.261Z,99.90
2018-08-14T05:35:09.033Z,99.80
2018-08-14T05:40:07.544Z,99.20
2018-08-14T05:45:06.960Z,99.20
2018-08-14T05:50:04.901Z,99.30
2018-08-14T05:55:02.678Z,98.90
2018-08-14T06:00:00.399Z,98.60
2018-08-14T06:04:58.205Z,98.60
2018-08-14T06:09:55.951Z,98.90
2018-08-14T06:14:58.822Z,97.80
2018-08-14T06:19:56.549Z,97.30
2018-08-14T06:24:54.488Z,96.60
2018-08-14T06:29:52.209Z,96.30
2018-08-14T06:34:49.926Z,96.10
2018-08-14T06:39:47.641Z,95.10
2018-08-14T06:44:45.337Z,93.70
2018-08-14T06:49:43.044Z,93.30
2018-08-14T06:54:40.879Z,93.90
2018-08-14T06:59:38.573Z,93.80
2018-08-14T07:04:37.093Z,93.00
2018-08-14T07:09:34.875Z,92.00
2018-08-14T07:14:32.712Z,91.30
2018-08-14T07:19:30.457Z,92.20
2018-08-14T07:24:28.161Z,90.90
2018-08-14T07:29:25.944Z,91.40
2018-08-14T07:34:23.728Z,92.30
2018-08-14T07:39:21.485Z,90.80
2018-08-14T07:44:19.241Z,90.00
2018-08-14T07:49:16.945Z,90.40
2018-08-14T07:54:14.661Z,90.20
2018-08-14T07:59:12.364Z,87.20
2018-08-14T08:04:10.121Z,86.20
2018-08-14T08:09:10.540Z,83.20
2018-08-14T08:14:08.393Z,82.60
2018-08-14T08:19:06.717Z,83.20
2018-08-14T08:24:04.433Z,85.10
2018-08-14T08:29:02.209Z,83.60
2018-08-14T08:33:59.989Z,79.60
2018-08-14T08:38:57.689Z,79.00
2018-08-14T08:43:55.448Z,77.10
2018-08-14T08:48:53.180Z,72.40
2018-08-14T08:53:50.876Z,70.60
2018-08-14T08:58:48.601Z,67.40
2018-08-14T09:03:46.467Z,68.10
2018-08-14T09:08:44.141Z,67.20
2018-08-14T09:13:41.925Z,66.40
2018-08-14T09:18:39.653Z,63.50
2018-08-14T09:23:37.409Z,64.20
2018-08-14T09:28:35.168Z,60.90
2018-08-14T09:33:32.900Z,60.50
2018-08-14T09:38:30.610Z,62.10
2018-08-14T09:43:28.321Z,59.10
2018-08-14T09:48:26.189Z,58.30
2018-08-14T09:53:23.917Z,61.10
2018-08-14T09:58:21.784Z,58.10
2018-08-14T10:03:25.060Z,56.90
2018-08-14T10:08:22.870Z,57.10
2018-08-14T10:13:20.717Z,56.10
2018-08-14T10:18:21.313Z,57.30
2018-08-14T10:23:19.729Z,58.70
2018-08-14T10:28:20.057Z,58.60
2018-08-14T10:33:17.934Z,58.20
2018-08-14T10:38:15.972Z,57.90
2018-08-14T10:43:13.805Z,56.50
2018-08-14T10:48:11.561Z,57.20
2018-08-14T10:53:09.289Z,54.50
2018-08-14T10:58:07.799Z,56.10
2018-08-14T11:03:05.522Z,53.30
2018-08-14T11:08:03.372Z,52.40
2018-08-14T11:13:01.097Z,53.10
2018-08-14T11:17:58.877Z,52.00
2018-08-14T11:22:56.715Z,51.80
2018-08-14T11:27:54.733Z,51.40
2018-08-14T11:32:53.241Z,49.70
2018-08-14T11:37:51.229Z,51.80
2018-08-14T11:42:49.158Z,52.20
2018-08-14T11:47:47.416Z,48.40
2018-08-14T11:52:47.896Z,49.50
2018-08-14T11:57:46.629Z,47.10
2018-08-14T12:02:44.558Z,48.90
2018-08-14T12:07:42.707Z,48.20
2018-08-14T12:12:41.227Z,50.10
2018-08-14T12:17:39.177Z,50.70
2018-08-14T12:22:37.015Z,47.60
2018-08-14T12:27:34.905Z,46.60
2018-08-14T12:32:32.786Z,46.20
2018-08-14T12:37:30.593Z,46.90
2018-08-14T12:42:28.515Z,48.00
2018-08-14T12:47:26.588Z,46.90
2018-08-14T12:52:25.267Z,47.70
2018-08-14T12:57:22.994Z,46.20
2018-08-14T13:02:20.814Z,44.00
2018-08-14T13:07:18.633Z,43.90
2018-08-14T13:12:16.581Z,44.00
2018-08-14T13:17:14.482Z,45.00
2018-08-14T13:22:12.447Z,44.80
2018-08-14T13:27:10.253Z,46.80
2018-08-14T13:32:08.142Z,46.90
2018-08-14T13:37:06.113Z,48.20
2018-08-14T13:42:04.072Z,47.60
2018-08-14T13:47:01.964Z,44.40
2018-08-14T13:51:59.777Z,44.80
2018-08-14T13:56:57.653Z,44.80
2018-08-14T14:01:55.589Z,45.30
2018-08-14T14:06:53.597Z,43.50
2018-08-14T14:11:51.461Z,43.50
2018-08-14T14:16:49.270Z,43.00
2018-08-14T14:21:47.065Z,41.60
2018-08-14T14:26:44.871Z,42.80
2018-08-14T14:31:42.781Z,43.40
2018-08-14T14:36:40.597Z,41.90
2018-08-14T14:41:39.738Z,41.70
2018-08-14T14:46:38.992Z,43.10
2018-08-14T14:51:39.368Z,41.40
2018-08-14T14:56:37.710Z,42.90
2018-08-14T15:01:36.305Z,43.10
2018-08-14T15:06:34.065Z,43.50
2018-08-14T15:11:32.257Z,45.40
2018-08-14T15:16:29.969Z,44.20
2018-08-14T15:21:27.790Z,43.30
2018-08-14T15:26:25.707Z,43.00
2018-08-14T15:31:24.464Z,44.00
2018-08-14T15:36:23.998Z,42.90
2018-08-14T15:41:21.808Z,42.10
2018-08-14T15:46:19.623Z,42.00
2018-08-14T16:45:47.206Z,44.40
2018-08-14T16:50:45.063Z,44.70
2018-08-14T16:55:43.880Z,45.10
2018-08-14T17:00:41.866Z,46.00
2018-08-14T17:05:40.337Z,46.20
2018-08-14T17:10:38.239Z,46.00
2018-08-14T17:15:36.151Z,46.40
2018-08-14T17:20:32.881Z,46.60
2018-08-14T17:25:30.640Z,46.90
2018-08-14T17:30:28.517Z,47.30
2018-08-14T17:35:26.418Z,47.90
2018-08-14T17:40:25.447Z,48.80
2018-08-14T17:45:30.475Z,46.20
2018-08-14T17:50:28.532Z,50.00
2018-08-14T17:55:26.853Z,49.10
2018-08-14T18:00:27.214Z,51.30
2018-08-14T18:05:24.999Z,51.60
2018-08-14T18:10:23.304Z,52.80
2018-08-14T18:20:47.833Z,53.90
2018-08-14T18:26:06.400Z,54.60
2018-08-14T18:31:04.197Z,56.20
2018-08-14T18:41:37.613Z,55.40
2018-08-14T18:46:35.336Z,56.20
2018-08-14T18:51:33.125Z,56.80
2018-08-14T18:56:30.834Z,56.90
2018-08-14T19:01:28.536Z,57.70
2018-08-14T19:06:26.291Z,57.40
2018-08-14T19:11:24.009Z,57.70
2018-08-14T19:16:21.717Z,58.40
2018-08-14T19:21:19.528Z,59.80
2018-08-14T19:26:17.444Z,60.60
